Iguazu, Argentina
Current Conditions -  °F | °C
As of 8:00 PM on Wednesday 22 Oct 2014 (Local Time) from SBFI Reporting Station
Clear Clear  
Wind Chill: 77°   Ceiling: Unl
Heat Index: 79°   Visibility: 6mi
Dew Point: 57°   Wind: 8mph
Humidity: 50%   Direction: 110°ESE
Pressure: 29.97"   Gusts: NA
Location:  25.58°S, 54.57°W
Report Text: SBFI 222300Z 11007KT CAVOK 25/14 Q1015
Loading
Personal Weather Stations






























Interactive Weather Map
Tropical Storm Tracking
New forecast layout! Learn more

10-Day Weather Forecast

Advertisements
Track Severe Weather on mobile